Etusivu
METAR-TAF:

METAR-TAF

Lentoasemat :

Hammerfest, Norja

Leveyspiiri: 70-40N, Pituuspiiri: 023-40E, korkeus merenpinnasta: 8 m

Tämänhetkinen sää

Tämä raportti tehtiin 47 minuuttia sitten, kello 05.50 UTC
Tuuli 7 kn idästä/koillisesta
Lämpötila 8°C
Kosteus 81%
Ilmanpaine 1019 hPa
Näkyvyys 10 km tai enemmän
Muutamia pilviä 1700 ft:n korkeudessa
Hajanaisia pilviä 2800 ft:n korkeudessa

METAR: ENHF 240550Z 06007KT 9999 FEW017 SCT028 08/05 Q1019 RMK WIND 1254FT 10011KT

Aika: 08:37 (06:37 UTC)

Sääennuste

Tämä raportti tehtiin 1 tunti ja 37 minuuttia sitten, kello 05.00 UTC
Ennuste voimassa 24. päivästä klo 06 UTC - 24. päivään klo 15 UTC
Tuuli 8 kn idästä/koillisesta
Näkyvyys 10 km tai enemmän
Muutamia pilviä 2000 ft:n korkeudessa
Hajanaisia pilviä 4000 ft:n korkeudessa

TAF: ENHF 240500Z 2406/2415 06008KT 9999 FEW020 SCT040

Säähavainnot ja -ennusteet yli 4000 lentoasemalta (METAR- ja TAF-raportit).

Käytössä olevat sääasemat on merkitty karttaan keltaisilla ja punaisilla pisteillä.

Aseta hiiri pisteen päälle nähdäksesi sääaseman nimen.

Klikkaa sitten nähdäksesi säähavainnot ja -ennusteet.

Kartan vaihtaminen: klikkaa mustalla rastilla varustettuja vihreitä pisteitä, niin voit zoomata sisään; viivalla varustettua vihreää pistettä, niin voit zoomata ulos tai vihreitä nuolia, niin pääset viereisille kartoille.


METAR-TAF: